< Cyclone 201215 2012 Season Cyclone 201303 >
Cyclone 201216 (Lua)
General InformationDetailed Track InformationTrack Information on Google MapsList of All Images || ResourceGoogle EarthGE AnimationAtom FeedGeoJSON
Detalied Best Track Wind (Time Zone = UTC)
Year Month Day Hour Lat. Long. Wind (kt) Gust (kt) Direc. of Major Storm Axis Radius of Major Storm Axis (nm) Radius of Minor Storm Axis (nm) Direc. of Major Gale Axis Radius of Major Gale Axis (nm) Radius of Minor Gale Axis (nm) Image
2012 3 9 00 -13.6 111.3 25 45 symmetric - - symmetric - - Image
2012 3 10 00 -16.4 112.0 20 45 symmetric - - symmetric - - Image
2012 3 10 05 -16.2 112.7 25 45 symmetric - - symmetric - - Image
2012 3 10 06 -17.4 113.0 20 45 symmetric - - symmetric - - Image
2012 3 10 12 -18.4 114.0 20 45 symmetric - - symmetric - - Image
2012 3 10 18 -18.3 114.2 20 45 symmetric - - symmetric - - Image
2012 3 11 00 -18.2 114.3 25 45 symmetric - - symmetric - - Image
2012 3 11 06 -18.1 114.5 25 45 symmetric - - symmetric - - Image
2012 3 11 12 -18.1 114.7 25 45 symmetric - - symmetric - - Image
2012 3 11 18 -18.2 114.8 25 45 symmetric - - symmetric - - Image
2012 3 12 00 -18.2 114.9 25 45 symmetric - - symmetric - - Image
2012 3 12 06 -18.3 115.0 25 45 symmetric - - symmetric - - Image
2012 3 12 12 -18.4 115.0 25 45 symmetric - - symmetric - - Image
2012 3 12 18 -18.5 115.1 25 45 symmetric - - symmetric - - Image
2012 3 13 00 -18.7 115.3 30 45 symmetric - - symmetric - - Image
2012 3 13 06 -18.6 114.8 30 45 symmetric - - symmetric - - Image
2012 3 13 09 -18.1 114.8 35 50 symmetric - - symmetric - - Image
2012 3 13 12 -18.1 114.0 30 45 symmetric - - symmetric - - Image
2012 3 13 15 -17.8 114.1 35 50 symmetric - - symmetric - - Image
2012 3 13 18 -17.2 113.3 30 45 symmetric - - symmetric - - Image
2012 3 14 00 -16.6 112.9 35 50 symmetric - - symmetric - - Image
2012 3 14 03 -16.4 112.8 40 55 symmetric - - symmetric - - Image
2012 3 14 06 -16.0 113.0 45 65 symmetric - - symmetric - - Image
2012 3 14 09 -15.8 113.0 50 70 symmetric - - symmetric - - Image
2012 3 14 12 -15.5 112.9 50 70 symmetric - - symmetric - - Image
2012 3 14 15 -15.5 113.0 50 70 symmetric - - symmetric - - Image
2012 3 14 18 -15.5 113.1 55 75 symmetric - - symmetric - - Image
2012 3 14 21 -15.5 113.1 55 75 symmetric - - symmetric - - Image
2012 3 14 22 -15.5 113.2 55 -1 symmetric - - symmetric - - Image
2012 3 15 00 -15.6 113.3 55 75 symmetric - - symmetric - - Image
2012 3 15 03 -15.5 113.3 55 75 symmetric - - symmetric - - Image
2012 3 15 06 -15.4 113.5 55 75 symmetric - - symmetric - - Image
2012 3 15 09 -15.3 113.4 60 85 symmetric - - symmetric - - Image
2012 3 15 12 -15.3 113.8 60 85 symmetric - - symmetric - - Image
2012 3 15 15 -15.3 114.4 60 85 symmetric - - symmetric - - Image
2012 3 15 18 -15.5 114.9 65 90 symmetric - - symmetric - - Image
2012 3 15 21 -15.8 115.4 60 85 symmetric - - symmetric - - Image
2012 3 16 00 -16.0 115.8 65 90 symmetric - - symmetric - - Image
2012 3 16 03 -16.3 116.3 70 100 symmetric - - symmetric - - Image
2012 3 16 06 -16.4 116.9 70 100 symmetric - - symmetric - - Image
2012 3 16 09 -16.7 117.2 80 110 symmetric - - symmetric - - Image
2012 3 16 12 -16.7 118.0 75 105 symmetric - - symmetric - - Image
2012 3 16 15 -17.1 118.4 85 120 symmetric - - symmetric - - Image
2012 3 16 18 -17.5 118.9 85 120 symmetric - - symmetric - - Image
2012 3 16 20 -17.8 119.0 90 125 symmetric - - symmetric - - Image
2012 3 16 21 -17.8 119.1 90 -1 symmetric - - symmetric - - Image
2012 3 16 22 -18.1 119.4 90 125 symmetric - - symmetric - - Image
2012 3 16 23 -18.3 119.5 90 125 symmetric - - symmetric - - Image
2012 3 17 00 -18.4 119.5 85 120 symmetric - - symmetric - - Image
2012 3 17 01 -18.7 119.7 90 125 symmetric - - symmetric - - Image
2012 3 17 02 -18.9 119.7 90 125 symmetric - - symmetric - - Image
2012 3 17 03 -18.9 119.7 90 -1 symmetric - - symmetric - - Image
2012 3 17 04 -19.3 119.8 90 125 symmetric - - symmetric - - Image
2012 3 17 05 -19.5 119.9 90 125 symmetric - - symmetric - - Image
2012 3 17 06 -19.6 119.9 85 120 symmetric - - symmetric - - Image
2012 3 17 07 -19.9 120.0 85 120 symmetric - - symmetric - - Image
2012 3 17 08 -20.1 120.1 80 110 symmetric - - symmetric - - Image
2012 3 17 09 -20.3 120.2 75 105 symmetric - - symmetric - - Image
2012 3 17 10 -20.6 120.3 75 105 symmetric - - symmetric - - Image
2012 3 17 11 -21.0 120.3 70 100 symmetric - - symmetric - - Image
2012 3 17 12 -21.3 120.4 70 100 symmetric - - symmetric - - Image
2012 3 17 13 -21.6 120.3 60 85 symmetric - - symmetric - - Image
2012 3 17 15 -21.3 120.4 52.5 -1 symmetric - - symmetric - - Image
2012 3 17 18 -23.4 120.4 45 65 symmetric - - symmetric - - Image
2012 3 17 21 -23.8 120.4 37.5 -1 symmetric - - symmetric - - Image
2012 3 18 00 -24.2 120.4 30 45 symmetric - - symmetric - - Image
2012 3 18 03 -25.9 120.3 30 55 symmetric - - symmetric - - Image
2012 3 18 06 -27.0 120.4 25 45 symmetric - - symmetric - - Image
< Cyclone 201215 2012 Season Cyclone 201303 >

Help